Icarus — D5AX3 — position and weather

sailwx.info

Track history (hours):
 
Tides and Currents Weather Stations Pressure Air Temp Water Temp Dewpoint Dewpoint Depression Visibility Wind Speed Wind Dir Waves Ship Positions

Icarus

Last reported at 2014-Nov-30 12:05 UTC. Time now 2014-Dec-18 04:12 UTC.
Position N 30°21' E 122°40'.
Warning: this ship's position is 17 days out of date.

Length 225 m; draft 7.6 m.

Type: Cargo ship. MMSI: 636015464.

Date/timePositionNaut miles runAvg speedWind from/ knotsBaromVisibWave heightAir tempDewpointWater temp
2014-Nov-30 12:05N 30°21' E 122°40'812.8
2014-Nov-30 11:26N 30°22' E 122°31'1112.7
2014-Nov-30 10:33N 30°22' E 122°18'10 9.8
2014-Nov-30 09:33N 30°23' E 122°07'9 8.7
2014-Nov-30 08:33N 30°23' E 121°57'8 8.4
2014-Nov-30 07:33N 30°21' E 121°47'1010.2
2014-Nov-30 06:33N 30°15' E 121°56'6 1.4
2014-Nov-30 02:33N 30°14' E 122°02'3 1.0
2014-Nov-29 23:11N 30°16' E 122°05'  
2014-Nov-22 02:15N 30°17' E 122°05'1 0.0
2014-Nov-21 07:31N 30°16' E 122°05'1 0.2
2014-Nov-21 02:28N 30°15' E 122°05'6 6.6
2014-Nov-21 01:31N 30°15' E 121°58'3 0.9
2014-Nov-20 22:14N 30°16' E 121°55'0 0.1
2014-Nov-20 20:11N 30°16' E 121°55'0 0.1
2014-Nov-20 16:26N 30°16' E 121°54'8 8.0
2014-Nov-20 15:28N 30°21' E 121°47'1212.5
2014-Nov-20 14:31N 30°23' E 122°01'1414.7
2014-Nov-20 13:33N 30°22' E 122°17'1714.1
2014-Nov-20 12:22N 30°22' E 122°36'  
Track history (hours):
 
Tides and Currents Weather Stations Pressure Air Temp Water Temp Dewpoint Dewpoint Depression Visibility Wind Speed Wind Dir Waves Ship Positions

Icarus

Last reported at 2014-Nov-30 12:05 UTC. Time now 2014-Dec-18 04:12 UTC.
Position N 30°21' E 122°40'.
Warning: this ship's position is 17 days out of date.

Length 225 m; draft 7.6 m.

Type: Cargo ship. MMSI: 636015464.

Date/timePositionNaut miles runAvg speedWind from/ knotsBaromVisibWave heightAir tempDewpointWater temp
2014-Nov-30 12:05N 30°21' E 122°40'812.8
2014-Nov-30 11:26N 30°22' E 122°31'1112.7
2014-Nov-30 10:33N 30°22' E 122°18'10 9.8
2014-Nov-30 09:33N 30°23' E 122°07'9 8.7
2014-Nov-30 08:33N 30°23' E 121°57'8 8.4
2014-Nov-30 07:33N 30°21' E 121°47'1010.2
2014-Nov-30 06:33N 30°15' E 121°56'6 1.4
2014-Nov-30 02:33N 30°14' E 122°02'3 1.0
2014-Nov-29 23:11N 30°16' E 122°05'  
2014-Nov-22 02:15N 30°17' E 122°05'1 0.0
2014-Nov-21 07:31N 30°16' E 122°05'1 0.2
2014-Nov-21 02:28N 30°15' E 122°05'6 6.6
2014-Nov-21 01:31N 30°15' E 121°58'3 0.9
2014-Nov-20 22:14N 30°16' E 121°55'0 0.1
2014-Nov-20 20:11N 30°16' E 121°55'0 0.1
2014-Nov-20 16:26N 30°16' E 121°54'8 8.0
2014-Nov-20 15:28N 30°21' E 121°47'1212.5
2014-Nov-20 14:31N 30°23' E 122°01'1414.7
2014-Nov-20 13:33N 30°22' E 122°17'1714.1
2014-Nov-20 12:22N 30°22' E 122°36'  

Dump ship's entire track history